createdAt,value
2022-12-05T02:23:15.812Z,96609.03
2022-12-05T07:50:03.065Z,96674.47
2022-12-05T07:52:30.375Z,96681.53
2022-12-05T07:54:58.973Z,96682.50
2022-12-05T07:57:30.872Z,96679.94
2022-12-05T07:59:58.470Z,96678.66
2022-12-05T08:02:25.892Z,96662.19
2022-12-05T08:04:53.167Z,96676.59
2022-12-05T08:07:20.739Z,96675.38
2022-12-05T08:09:48.174Z,96674.75
2022-12-05T08:12:15.735Z,96684.16
2022-12-05T08:14:45.110Z,96679.81
2022-12-05T08:17:12.650Z,96690.34
2022-12-05T08:19:40.045Z,96691.47
2022-12-05T08:22:07.504Z,96678.16
2022-12-05T08:24:35.050Z,96497.31
2022-12-05T08:27:02.454Z,96573.44
2022-12-05T08:29:29.951Z,96692.50
2022-12-05T08:31:57.528Z,96688.06
2022-12-05T08:34:25.069Z,96684.06
2022-12-05T08:36:52.424Z,96681.72
2022-12-05T08:39:20.665Z,96697.78
2022-12-05T08:41:48.427Z,96695.22
2022-12-05T08:44:16.301Z,96578.25
2022-12-05T08:46:46.853Z,96692.19
2022-12-05T08:49:14.497Z,96680.94
2022-12-05T08:51:42.259Z,96673.91
2022-12-05T08:54:09.896Z,96670.94
2022-12-05T08:56:37.088Z,96664.59
2022-12-05T08:59:05.949Z,96694.06
2022-12-05T09:01:35.053Z,96667.38
2022-12-05T09:04:05.256Z,96651.19
2022-12-05T09:06:33.903Z,96678.16
2022-12-05T09:09:07.848Z,96668.06
2022-12-05T09:11:37.710Z,96667.38
2022-12-05T09:14:06.220Z,96672.94
2022-12-05T09:16:38.370Z,96672.16
2022-12-05T09:19:17.160Z,96671.28
2022-12-05T09:21:45.020Z,96674.50
2022-12-05T09:24:13.872Z,96673.38
2022-12-05T09:26:41.458Z,96658.41
2022-12-05T09:29:15.717Z,96663.13
2022-12-05T09:31:44.737Z,96657.09
2022-12-05T09:34:13.938Z,96648.06
2022-12-05T09:36:42.859Z,96638.06
2022-12-05T09:39:11.421Z,96659.59
2022-12-05T09:42:05.366Z,96648.66
2022-12-05T09:44:44.546Z,96647.38
2022-12-05T09:47:44.503Z,96643.25
2022-12-05T09:50:17.502Z,96642.81
2022-12-05T09:52:58.871Z,96643.41
2022-12-05T09:55:36.029Z,96640.63
2022-12-05T09:58:13.897Z,96537.63
2022-12-05T10:00:41.620Z,96638.69
2022-12-05T10:03:24.888Z,96641.66
2022-12-05T10:06:14.817Z,96628.16
2022-12-05T10:08:41.701Z,96623.03
2022-12-05T10:11:26.460Z,96654.03
2022-12-05T10:14:31.851Z,96630.53
2022-12-05T10:17:09.129Z,96637.94
2022-12-05T10:19:44.689Z,96636.53
2022-12-05T10:22:20.862Z,96628.09
2022-12-05T10:24:55.204Z,96616.84
2022-12-05T10:27:39.597Z,96602.66
2022-12-05T10:30:18.308Z,96615.38
2022-12-05T10:33:06.404Z,96617.72
2022-12-05T10:35:39.661Z,96608.28
2022-12-05T10:38:12.653Z,96614.06
2022-12-05T10:40:44.491Z,96599.53
2022-12-05T10:43:16.986Z,96607.28
2022-12-05T10:45:48.023Z,96603.81
2022-12-05T10:48:18.564Z,96605.63
2022-12-05T10:50:50.099Z,96602.50
2022-12-05T10:53:23.976Z,96589.44
2022-12-05T10:56:28.319Z,96599.03
2022-12-05T10:58:55.758Z,96507.47
2022-12-05T11:01:26.161Z,96596.06
2022-12-05T11:04:00.213Z,96594.28
2022-12-05T11:06:31.307Z,96609.34
2022-12-05T11:09:23.742Z,96580.13
2022-12-05T11:12:09.806Z,96579.03
2022-12-05T11:14:37.828Z,96569.22
2022-12-05T11:17:06.212Z,96580.13
2022-12-05T11:19:39.377Z,96566.97
2022-12-05T11:22:07.056Z,96558.31
2022-12-05T11:24:37.099Z,96563.22
2022-12-05T11:27:16.622Z,96568.53
2022-12-05T11:29:53.694Z,96562.09
2022-12-05T11:32:24.092Z,96563.09
2022-12-05T11:35:13.738Z,96546.09
2022-12-05T11:37:58.309Z,96555.56
2022-12-05T11:40:50.145Z,96543.09
2022-12-05T11:43:32.041Z,96533.97
2022-12-05T11:46:04.908Z,96546.44
2022-12-05T11:48:47.992Z,96540.19
2022-12-05T11:51:24.146Z,96527.09
2022-12-05T11:54:42.100Z,96522.69
2022-12-05T11:57:52.304Z,96530.50
2022-12-05T12:00:42.503Z,96521.00
2022-12-05T12:03:33.471Z,96523.38
2022-12-05T12:06:38.151Z,96526.03
2022-12-05T12:09:30.245Z,96517.00
2022-12-05T12:12:31.740Z,96518.78
2022-12-05T12:15:36.020Z,96517.09
2022-12-05T12:18:13.210Z,96475.50
2022-12-05T12:21:22.105Z,96394.47
2022-12-05T12:24:09.022Z,96504.41
2022-12-05T12:26:50.229Z,96407.66
2022-12-05T12:29:39.419Z,96512.53
2022-12-05T12:32:21.533Z,96503.28
2022-12-05T12:35:11.128Z,96491.47
2022-12-05T12:38:23.451Z,96498.03
2022-12-05T12:40:54.379Z,96494.13
2022-12-05T12:43:53.712Z,96499.78
2022-12-05T12:46:42.652Z,96500.72
2022-12-05T12:49:36.253Z,96500.38
2022-12-05T12:52:12.188Z,96519.09
2022-12-05T12:55:03.921Z,96500.47
2022-12-05T12:58:05.939Z,96491.25
2022-12-05T13:00:59.886Z,96495.50
2022-12-05T13:03:38.134Z,96483.31
2022-12-05T13:06:13.100Z,96486.53
2022-12-05T13:08:44.433Z,96484.88
2022-12-05T13:11:14.551Z,96479.06
2022-12-05T13:13:51.342Z,96485.19
2022-12-05T13:16:26.950Z,96479.63
2022-12-05T13:18:56.539Z,96484.41
2022-12-05T13:21:24.623Z,96479.94
2022-12-05T13:23:55.784Z,96471.91
2022-12-05T13:26:24.141Z,96481.94
2022-12-05T13:28:58.598Z,96485.75
2022-12-05T13:31:41.546Z,96482.97
2022-12-05T13:34:29.532Z,96494.47
2022-12-05T13:36:59.049Z,96482.94
2022-12-05T13:39:26.447Z,96412.84
2022-12-05T13:41:56.979Z,96376.81
2022-12-05T13:45:10.628Z,96496.75
2022-12-05T13:47:53.175Z,96500.56
2022-12-05T13:50:33.284Z,96390.19
2022-12-05T13:53:37.572Z,96500.09
2022-12-05T13:56:06.897Z,96495.41
2022-12-05T13:58:44.693Z,96497.41
2022-12-05T14:01:27.224Z,96497.28
2022-12-05T14:03:57.943Z,96494.28
2022-12-05T14:06:41.809Z,96494.19
2022-12-05T14:09:18.180Z,96493.59
2022-12-05T14:12:15.213Z,96496.84
2022-12-05T14:14:57.790Z,96494.03
2022-12-05T14:17:29.876Z,96510.31
2022-12-05T14:20:20.267Z,96507.78
2022-12-05T14:23:24.980Z,96506.88
2022-12-05T14:26:07.027Z,96512.44
2022-12-05T14:28:43.859Z,96506.13
2022-12-05T14:31:32.580Z,96495.16
2022-12-05T14:34:20.896Z,96499.78
2022-12-05T14:37:22.181Z,96510.31
2022-12-05T14:39:52.943Z,96501.19
2022-12-05T14:42:35.543Z,96498.41
2022-12-05T14:45:33.537Z,96498.59
2022-12-05T14:48:14.836Z,96410.91
2022-12-05T14:50:47.607Z,96499.03
2022-12-05T14:53:19.020Z,96500.69
2022-12-05T14:56:23.502Z,96496.25
2022-12-05T14:59:21.737Z,96330.25
2022-12-05T15:02:07.064Z,96497.38
2022-12-05T15:05:18.297Z,96508.50
2022-12-05T15:07:46.731Z,96504.59
2022-12-05T15:10:35.062Z,96506.50
2022-12-05T15:13:35.894Z,96505.97
2022-12-05T15:16:12.559Z,96487.00
2022-12-05T15:18:46.510Z,96496.75
2022-12-05T15:21:43.550Z,96495.50
2022-12-05T15:24:13.061Z,96499.09
2022-12-05T15:26:47.737Z,96499.19
2022-12-05T15:29:22.028Z,96487.25
2022-12-05T15:31:54.347Z,96490.81
2022-12-05T15:34:30.462Z,96420.09
2022-12-05T15:37:05.252Z,96496.94
2022-12-05T15:39:52.864Z,96499.72
2022-12-05T15:42:29.653Z,96473.72
2022-12-05T15:45:12.466Z,96497.28
2022-12-05T15:47:40.785Z,96498.84
2022-12-05T15:50:37.569Z,96481.44
2022-12-05T15:53:23.546Z,96491.25
2022-12-05T15:55:59.849Z,96490.28
2022-12-05T15:58:31.786Z,96488.81
2022-12-05T16:01:05.986Z,96498.41
2022-12-05T16:03:51.732Z,96497.97
2022-12-05T16:06:30.897Z,96491.84
2022-12-05T16:09:00.627Z,96489.94
2022-12-05T16:11:28.301Z,96522.13
2022-12-05T16:13:58.219Z,96485.88
2022-12-05T16:16:55.267Z,96500.75
2022-12-05T16:19:23.732Z,96504.84
2022-12-05T16:22:08.104Z,96471.34
2022-12-05T16:24:54.688Z,96502.78
2022-12-05T16:27:25.014Z,96504.13
2022-12-05T16:30:12.776Z,96504.78
2022-12-05T16:32:42.305Z,96472.56
2022-12-05T16:35:28.373Z,96494.63
2022-12-05T16:38:12.035Z,96409.22
2022-12-05T16:41:04.209Z,96501.56
2022-12-05T16:43:31.704Z,96494.84
2022-12-05T16:46:14.605Z,96491.84
2022-12-05T16:48:44.405Z,96489.94
2022-12-05T16:51:14.461Z,96483.88
2022-12-05T16:53:46.753Z,96484.66
2022-12-05T16:56:26.729Z,96484.22
2022-12-05T16:58:54.596Z,96397.19
2022-12-05T17:01:24.912Z,96481.19
2022-12-05T17:03:53.955Z,96458.09
2022-12-05T17:06:22.590Z,96310.75
2022-12-05T17:08:50.688Z,96479.09
2022-12-05T17:11:21.344Z,96480.31
2022-12-05T17:13:50.299Z,96483.09
2022-12-05T17:16:19.000Z,96289.78
2022-12-05T17:18:46.951Z,96520.22
2022-12-05T17:21:19.994Z,96476.50
2022-12-05T17:23:48.525Z,96495.69
2022-12-05T17:26:21.670Z,96477.09
2022-12-05T17:28:50.208Z,96508.38
2022-12-05T17:31:21.556Z,96497.06
2022-12-05T17:33:50.178Z,96494.28
2022-12-05T17:36:18.567Z,96496.63
2022-12-05T17:38:45.785Z,96501.59
2022-12-05T17:41:23.306Z,96499.69
2022-12-05T17:43:50.928Z,96503.50
2022-12-05T17:46:22.549Z,96494.38
2022-12-05T17:48:51.569Z,96501.50
2022-12-05T17:51:22.180Z,96475.81
2022-12-05T17:53:49.474Z,96407.72
2022-12-05T17:56:18.775Z,96323.44
2022-12-05T17:58:45.660Z,96501.25
2022-12-05T18:01:18.435Z,96504.72
2022-12-05T18:03:45.566Z,96503.69
2022-12-05T18:06:12.692Z,96395.84
2022-12-05T18:08:39.725Z,96511.94
2022-12-05T18:11:07.250Z,96514.56
2022-12-05T18:13:35.729Z,96509.78
2022-12-05T18:16:04.034Z,96491.19
2022-12-05T18:18:31.175Z,96416.72
2022-12-05T18:21:12.106Z,96499.03
2022-12-05T18:23:40.221Z,96512.31
2022-12-05T18:26:09.308Z,96518.44
2022-12-05T18:28:37.941Z,96523.91
2022-12-05T18:31:10.918Z,96519.56
2022-12-05T18:33:38.931Z,96545.81
2022-12-05T18:36:11.975Z,96420.16
2022-12-05T18:38:39.093Z,96516.50
2022-12-05T18:41:06.976Z,96508.06
2022-12-05T18:43:34.495Z,96508.16
2022-12-05T18:46:03.234Z,96504.69
2022-12-05T18:48:39.310Z,96515.28
2022-12-05T18:51:21.978Z,96521.66
2022-12-05T18:53:50.909Z,96413.09
2022-12-05T18:56:22.639Z,96506.88
2022-12-05T18:58:54.583Z,96540.34
2022-12-05T19:01:22.917Z,96503.19
2022-12-05T19:03:50.177Z,96505.28
2022-12-05T19:06:20.551Z,96508.59
2022-12-05T19:08:47.709Z,96498.34
2022-12-05T19:11:17.410Z,96504.44
2022-12-05T19:13:45.153Z,96500.50
2022-12-05T19:16:13.401Z,96497.03
2022-12-05T19:18:41.221Z,96495.81
2022-12-05T19:21:07.914Z,96496.59
2022-12-05T19:23:35.572Z,96498.25
2022-12-05T19:26:07.587Z,96499.13
2022-12-05T19:28:36.370Z,96500.34
2022-12-05T19:31:08.851Z,96495.91
2022-12-05T19:33:39.115Z,96497.13
2022-12-05T19:36:09.262Z,96496.09
2022-12-05T19:38:36.903Z,96411.28
2022-12-05T19:41:05.532Z,96478.78
2022-12-05T19:43:33.981Z,96475.91
2022-12-05T19:46:10.460Z,96487.13
2022-12-05T19:48:37.969Z,96490.88
2022-12-05T19:51:06.069Z,96494.69
2022-12-05T19:53:36.220Z,96490.34
2022-12-05T19:56:11.713Z,96489.66
2022-12-05T19:58:39.010Z,96396.53
2022-12-05T20:01:14.410Z,96379.66
2022-12-05T20:03:42.779Z,96381.44
2022-12-05T20:06:10.505Z,96497.47
2022-12-05T20:08:38.446Z,96486.00
2022-12-05T20:11:10.847Z,96479.56
2022-12-05T20:13:47.571Z,96479.81
2022-12-05T20:16:18.014Z,96471.41
2022-12-05T20:18:45.777Z,96468.25
2022-12-05T20:21:16.525Z,96469.66
2022-12-05T20:23:43.609Z,96471.47
2022-12-05T20:26:13.210Z,96454.19
2022-12-05T20:28:40.828Z,96371.50
2022-12-05T20:31:14.674Z,96471.84
2022-12-05T20:33:42.569Z,96466.44
2022-12-05T20:36:15.142Z,96460.22
2022-12-05T20:38:42.906Z,96467.94
2022-12-05T20:41:15.503Z,96473.06
2022-12-05T20:43:46.194Z,96472.09
2022-12-05T20:46:20.903Z,96452.63
2022-12-05T20:48:48.993Z,96456.00
2022-12-05T20:51:19.097Z,96456.56
2022-12-05T20:53:46.584Z,96452.22
2022-12-05T20:56:19.258Z,96450.63
2022-12-05T20:58:51.485Z,96367.69
2022-12-05T21:01:20.000Z,96449.00
2022-12-05T21:03:49.191Z,96453.66
2022-12-05T21:06:30.748Z,96452.28
2022-12-05T21:09:00.486Z,96456.97
2022-12-05T21:11:29.234Z,96451.41
2022-12-05T21:13:58.518Z,96344.25
2022-12-05T21:16:26.773Z,96446.28
2022-12-05T21:18:54.873Z,96444.56
2022-12-05T21:21:27.828Z,96436.81
2022-12-05T21:23:59.898Z,96411.78
2022-12-05T21:26:30.423Z,96429.59
2022-12-05T21:28:59.572Z,96423.69
2022-12-05T21:31:29.689Z,96400.50
2022-12-05T21:33:59.927Z,96420.50
2022-12-05T21:36:29.014Z,96424.03
2022-12-05T21:38:57.301Z,96422.47
2022-12-05T21:41:25.567Z,96416.41
2022-12-05T21:43:55.224Z,96415.19
2022-12-05T21:46:26.446Z,96407.44
2022-12-05T21:48:54.435Z,96415.44
2022-12-05T21:51:22.388Z,96339.72
2022-12-05T21:53:49.347Z,96413.78
2022-12-05T21:56:19.538Z,96407.63
2022-12-05T21:58:47.172Z,96304.97
2022-12-05T22:01:20.328Z,96318.47
2022-12-05T22:03:47.553Z,96406.84
2022-12-05T22:06:14.858Z,96412.84
2022-12-05T22:08:44.300Z,96410.50
2022-12-05T22:14:10.945Z,96395.91
2022-12-05T22:16:38.224Z,96397.91
2022-12-05T22:19:05.476Z,96399.38
2022-12-05T22:21:32.388Z,96399.38
2022-12-05T22:24:00.748Z,96401.81
2022-12-05T22:26:27.608Z,96378.88
2022-12-05T22:28:56.072Z,96309.88
2022-12-05T22:31:24.320Z,96399.00
2022-12-05T22:33:52.292Z,96392.50
2022-12-05T22:36:20.513Z,96396.19
2022-12-05T22:38:49.407Z,96410.50
2022-12-05T22:41:19.207Z,96387.16
2022-12-05T22:43:48.092Z,96380.03
2022-12-05T22:46:18.859Z,96387.50
2022-12-05T22:48:48.066Z,96393.84
2022-12-05T22:51:16.137Z,96384.16
2022-12-05T22:53:43.469Z,96385.28
2022-12-05T22:56:14.744Z,96381.38
2022-12-05T22:58:42.565Z,96296.25
2022-12-05T23:01:23.868Z,96303.47
2022-12-05T23:04:02.621Z,96363.91
2022-12-05T23:06:31.582Z,96367.47
2022-12-05T23:09:00.606Z,96383.38
2022-12-05T23:11:28.504Z,96365.91
2022-12-05T23:14:01.126Z,96369.03
2022-12-05T23:16:31.038Z,96292.19
2022-12-05T23:19:01.345Z,96369.94
2022-12-05T23:21:33.796Z,96375.50
2022-12-05T23:24:04.020Z,96362.22
2022-12-05T23:26:34.288Z,96364.47
2022-12-05T23:29:02.850Z,96364.38
2022-12-05T23:31:29.862Z,96356.03
2022-12-05T23:34:02.661Z,96356.13
2022-12-05T23:36:31.998Z,96343.38
2022-12-05T23:39:00.594Z,96331.13
2022-12-05T23:41:27.656Z,96332.56
2022-12-05T23:43:55.392Z,96334.84
2022-12-05T23:46:25.633Z,96311.34
2022-12-05T23:48:54.074Z,96223.88
2022-12-05T23:51:29.259Z,96325.84
2022-12-05T23:53:59.821Z,96319.09
2022-12-05T23:56:31.327Z,96325.25
2022-12-05T23:58:59.546Z,96323.28
